.
WxDataArchive / Data Records for 2006-05-11
2006-05-10 May 2006 2006-05-12

Data Records for Thursday, 11 May 2006

Time	Temp	Chill	HIndex	Humid	Dewpt	 Wind 	HiWind	WindDir	Rain 	Barom 
-----	----	-----	------	-----	-----	------	------	-------	-----	----- 
00:00	57.2	57.2	57.2	92	54.9	1	7	315	0.00	29.364 
00:05	57.0	57.0	57.0	92	54.7	2	7	0	0.01	29.364 
00:10	57.0	57.0	57.0	92	54.7	2	9	292	0.00	29.364 
00:15	57.0	57.0	57.0	92	54.7	2	6	292	0.00	29.350 
00:20	57.0	57.0	57.0	92	54.7	2	7	315	0.00	29.350 
00:25	57.0	57.0	57.0	92	54.7	1	5	315	0.00	29.350 
00:30	57.0	57.0	57.0	92	54.7	1	5	315	0.00	29.336 
00:35	56.9	56.9	56.9	92	54.6	1	4	315	0.01	29.336 
00:40	56.9	56.9	56.9	92	54.6	2	6	270	0.00	29.336 
00:45	56.9	56.9	56.9	92	54.6	1	4	292	0.00	29.327 
00:50	56.9	56.9	56.9	92	54.6	0	3	315	0.01	29.327 
00:55	56.7	56.7	56.7	92	54.4	1	4	315	0.03	29.327 
01:00	56.7	56.7	56.7	92	54.4	1	6	292	0.03	29.312 
01:05	56.6	56.6	56.6	93	54.6	0	3	0	0.01	29.312 
01:10	56.6	56.6	56.6	93	54.6	0	2	292	0.01	29.312 
01:15	56.6	56.6	56.6	93	54.6	1	3	248	0.00	29.299 
01:20	56.6	56.6	56.6	93	54.6	1	4	0	0.00	29.299 
01:25	56.6	56.6	56.6	93	54.6	1	4	315	0.00	29.299 
01:30	56.6	56.6	56.6	93	54.6	1	3	315	0.00	29.303 
01:35	56.6	56.6	56.6	94	54.9	2	5	315	0.01	29.303 
01:40	56.6	56.6	56.6	94	54.9	1	3	292	0.01	29.303 
01:45	56.5	56.5	56.5	94	54.8	2	4	315	0.01	29.294 
01:50	56.5	56.5	56.5	94	54.8	1	4	248	0.02	29.294 
01:55	56.3	56.3	56.3	94	54.6	1	3	270	0.01	29.294 
02:00	56.3	56.3	56.3	94	54.6	1	4	315	0.01	29.271 
02:05	56.2	56.2	56.2	94	54.5	1	4	292	0.00	29.271 
02:10	56.2	56.2	56.2	94	54.5	1	5	270	0.00	29.271 
02:15	56.2	56.2	56.2	94	54.5	0	2	292	0.00	29.258 
02:20	56.2	56.2	56.2	94	54.5	1	2	0	0.00	29.258 
02:25	56.2	56.2	56.2	94	54.5	1	3	315	0.00	29.258 
02:30	56.3	56.3	56.3	94	54.6	1	3	292	0.00	29.254 
02:35	56.3	56.3	56.3	94	54.6	2	3	292	0.00	29.254 
02:40	56.3	56.3	56.3	94	54.6	1	3	248	0.00	29.254 
02:45	56.3	56.3	56.3	94	54.6	1	3	248	0.00	29.258 
02:50	56.3	56.3	56.3	94	54.6	1	3	248	0.02	29.258 
02:55	56.3	56.3	56.3	94	54.6	1	2	248	0.01	29.258 
03:00	56.3	56.3	56.3	94	54.6	1	3	315	0.01	29.237 
03:05	56.2	56.2	56.2	94	54.5	1	4	270	0.02	29.237 
03:10	56.2	56.2	56.2	94	54.5	1	3	315	0.01	29.237 
03:15	56.0	56.0	56.0	94	54.3	1	5	270	0.00	29.218 
03:20	56.0	56.0	56.0	94	54.3	1	4	0	0.00	29.218 
03:25	56.0	56.0	56.0	94	54.3	1	4	292	0.00	29.218 
03:30	56.0	56.0	56.0	94	54.3	2	4	270	0.00	29.220 
03:35	56.0	56.0	56.0	93	54.0	2	5	270	0.00	29.220 
03:40	55.9	55.9	55.9	93	53.9	2	5	315	0.00	29.220 
03:45	55.9	55.9	55.9	93	53.9	2	3	270	0.00	29.217 
03:50	55.9	55.9	55.9	93	53.9	2	4	270	0.01	29.217 
03:55	55.9	55.9	55.9	92	53.6	3	5	270	0.00	29.217 
04:00	55.7	55.7	55.7	92	53.4	3	5	270	0.00	29.206 
04:05	55.6	55.6	55.6	92	53.3	2	4	315	0.00	29.206 
04:10	55.6	55.6	55.6	92	53.3	3	6	270	0.00	29.206 
04:15	55.4	55.4	55.4	91	52.8	2	4	270	0.00	29.217 
04:20	55.3	55.3	55.3	91	52.7	3	6	270	0.00	29.217 
04:25	55.1	55.1	55.1	91	52.5	3	5	270	0.00	29.217 
04:30	55.1	55.1	55.1	92	52.8	3	5	270	0.00	29.219 
04:35	55.0	55.0	55.0	92	52.7	2	5	248	0.00	29.219 
04:40	55.0	55.0	55.0	92	52.7	2	4	270	0.01	29.219 
04:45	54.8	54.8	54.8	93	52.8	2	4	270	0.00	29.228 
04:50	55.0	55.0	55.0	93	53.0	2	5	248	0.01	29.228 
04:55	55.0	55.0	55.0	93	53.0	2	5	248	0.00	29.228 
05:00	55.1	55.1	55.1	93	53.1	3	6	270	0.00	29.229 
05:05	55.0	55.0	55.0	94	53.3	3	6	270	0.01	29.229 
05:10	54.8	54.8	54.8	93	52.8	4	7	270	0.01	29.229 
05:15	54.7	54.7	54.7	93	52.7	3	7	270	0.00	29.232 
05:20	54.4	54.4	54.4	93	52.4	3	6	270	0.00	29.232 
05:25	54.1	54.1	54.1	92	51.8	4	7	270	0.01	29.232 
05:30	53.8	53.8	53.8	92	51.5	5	11	270	0.00	29.238 
05:35	53.6	53.6	53.6	92	51.3	4	8	270	0.00	29.238 
05:40	53.5	53.5	53.5	92	51.2	4	9	270	0.00	29.238 
05:45	53.5	53.5	53.5	92	51.2	4	12	270	0.00	29.241 
05:50	53.3	53.3	53.3	92	51.0	4	12	270	0.00	29.241 
05:55	53.3	53.3	53.3	92	51.0	5	7	270	0.00	29.241 
06:00	53.3	53.3	53.3	92	51.0	5	11	270	0.01	29.246 
06:05	53.2	53.2	53.2	92	50.9	4	7	270	0.00	29.246 
06:10	53.1	53.1	53.1	91	50.5	4	9	270	0.00	29.246 
06:15	52.9	52.9	52.9	91	50.3	5	12	270	0.00	29.256 
06:20	52.8	52.8	52.8	90	49.9	5	9	270	0.01	29.256 
06:25	52.6	52.6	52.6	91	50.0	4	10	270	0.00	29.256 
06:30	52.5	52.5	52.5	91	49.9	5	9	270	0.00	29.257 
06:35	52.3	52.3	52.3	91	49.8	5	9	270	0.00	29.257 
06:40	52.2	52.2	52.2	89	49.1	5	12	270	0.00	29.257 
06:45	52.0	52.0	52.0	89	48.9	6	13	270	0.01	29.268 
06:50	52.0	52.0	52.0	88	48.6	5	14	270	0.00	29.268 
06:55	52.0	52.0	52.0	89	48.9	5	10	270	0.00	29.268 
07:00	51.9	51.9	51.9	89	48.8	5	11	270	0.01	29.273 
07:05	51.9	51.9	51.9	90	49.1	5	18	270	0.01	29.273 
07:10	51.7	51.7	51.7	91	49.2	5	11	270	0.01	29.273 
07:15	51.9	51.9	51.9	91	49.4	5	10	270	0.00	29.275 
07:20	51.9	51.9	51.9	91	49.4	4	7	270	0.00	29.275 
07:25	51.9	51.9	51.9	91	49.4	4	14	270	0.00	29.275 
07:30	51.9	51.9	51.9	91	49.4	5	10	270	0.01	29.279 
07:35	51.7	51.7	51.7	92	49.5	4	7	270	0.00	29.279 
07:40	51.7	51.7	51.7	91	49.2	5	10	270	0.00	29.279 
07:45	51.7	51.7	51.7	91	49.2	4	10	270	0.00	29.280 
07:50	51.7	51.7	51.7	91	49.2	4	9	270	0.00	29.280 
07:55	51.7	51.7	51.7	91	49.2	4	9	270	0.00	29.280 
08:00	51.7	51.7	51.7	91	49.2	4	8	270	0.01	29.278 
08:05	51.7	51.7	51.7	91	49.2	4	11	270	0.00	29.278 
08:10	51.7	51.7	51.7	92	49.5	3	6	270	0.00	29.278 
08:15	51.7	51.7	51.7	91	49.2	5	10	270	0.00	29.283 
08:20	51.7	51.7	51.7	91	49.2	4	7	270	0.01	29.283 
08:25	51.7	51.7	51.7	91	49.2	4	7	270	0.00	29.283 
08:30	51.7	51.7	51.7	90	48.9	5	11	270	0.00	29.282 
08:35	51.9	51.9	51.9	90	49.1	4	7	270	0.00	29.282 
08:40	51.9	51.9	51.9	90	49.1	5	12	270	0.00	29.282 
08:45	52.0	52.0	52.0	89	48.9	4	10	270	0.00	29.290 
08:50	52.2	52.2	52.2	89	49.1	4	15	270	0.00	29.290 
08:55	52.3	52.3	52.3	88	48.9	5	12	270	0.00	29.290 
09:00	52.5	52.5	52.5	88	49.0	5	14	270	0.00	29.294 
09:05	52.6	52.6	52.6	88	49.1	4	10	270	0.00	29.294 
09:10	52.8	52.8	52.8	88	49.3	4	10	270	0.00	29.294 
09:15	52.8	52.8	52.8	88	49.3	3	8	270	0.00	29.299 
09:20	52.8	52.8	52.8	88	49.3	5	12	270	0.00	29.299 
09:25	52.8	52.8	52.8	88	49.3	3	9	270	0.01	29.299 
09:30	52.6	52.6	52.6	89	49.4	4	10	270	0.00	29.306 
09:35	52.8	52.8	52.8	89	49.6	4	9	270	0.00	29.306 
09:40	52.8	52.8	52.8	89	49.6	4	12	270	0.00	29.306 
09:45	52.9	52.9	52.9	89	49.7	3	7	248	0.00	29.307 
09:50	52.9	52.9	52.9	88	49.4	4	9	270	0.00	29.307 
09:55	52.8	52.8	52.8	88	49.3	4	9	270	0.01	29.307 
10:00	52.8	52.8	52.8	89	49.6	3	6	248	0.00	29.307 
10:05	52.6	52.6	52.6	90	49.7	3	7	248	0.00	29.307 
10:10	52.6	52.6	52.6	90	49.7	3	6	248	0.00	29.307 
10:15	52.8	52.8	52.8	89	49.6	4	9	270	0.00	29.310 
10:20	52.8	52.8	52.8	88	49.3	5	11	270	0.00	29.310 
10:25	53.1	53.1	53.1	89	49.9	4	7	270	0.00	29.310 
10:30	53.3	53.3	53.3	89	50.1	3	10	248	0.00	29.312 
10:35	53.2	53.2	53.2	88	49.7	4	11	248	0.00	29.312 
10:40	53.1	53.1	53.1	89	49.9	4	12	248	0.01	29.312 
10:45	53.5	53.5	53.5	91	50.9	3	11	270	0.00	29.311 
10:50	53.3	53.3	53.3	89	50.1	5	11	248	0.00	29.311 
10:55	53.2	53.2	53.2	89	50.0	4	10	248	0.00	29.311 
11:00	53.2	53.2	53.2	90	50.3	4	7	270	0.00	29.313 
11:05	53.1	53.1	53.1	90	50.2	3	7	248	0.00	29.313 
11:10	52.9	52.9	52.9	89	49.7	3	9	270	0.00	29.313 
11:15	52.9	52.9	52.9	90	50.0	3	10	270	0.00	29.315 
11:20	52.9	52.9	52.9	90	50.0	4	12	270	0.01	29.315 
11:25	52.8	52.8	52.8	90	49.9	5	11	248	0.00	29.315 
11:30	52.9	52.9	52.9	91	50.3	4	7	270	0.00	29.319 
11:35	52.9	52.9	52.9	91	50.3	4	10	248	0.00	29.319 
11:40	53.1	53.1	53.1	91	50.5	3	7	270	0.01	29.319 
11:45	53.2	53.2	53.2	91	50.6	4	13	248	0.00	29.324 
11:50	53.3	53.3	53.3	90	50.4	4	10	270	0.00	29.324 
11:55	53.2	53.2	53.2	90	50.3	4	10	270	0.01	29.324 
12:00	52.9	52.9	52.9	90	50.0	4	11	270	0.00	29.325 
12:05	52.9	52.9	52.9	91	50.3	2	4	248	0.01	29.325 
12:10	52.9	52.9	52.9	91	50.3	3	6	248	0.00	29.325 
12:15	53.1	53.1	53.1	91	50.5	4	10	248	0.00	29.326 
12:20	53.1	53.1	53.1	91	50.5	4	12	270	0.00	29.326 
12:25	53.2	53.2	53.2	90	50.3	5	15	270	0.00	29.326 
12:30	53.3	53.3	53.3	90	50.4	4	11	248	0.00	29.326 
12:35	53.9	53.9	53.9	91	51.3	3	6	248	0.00	29.326 
12:40	54.8	54.8	54.8	90	51.9	4	10	248	0.00	29.326 
12:45	55.4	55.4	55.4	88	51.9	4	12	270	0.00	29.324 
12:50	55.1	55.1	55.1	84	50.4	5	11	270	0.00	29.324 
12:55	55.1	55.1	55.1	85	50.7	4	12	270	0.00	29.324 
13:00	55.1	55.1	55.1	85	50.7	4	17	270	0.01	29.323 
13:05	55.3	55.3	55.3	84	50.5	4	8	270	0.00	29.323 
13:10	55.1	55.1	55.1	84	50.4	4	12	270	0.00	29.323 
13:15	54.5	54.5	54.5	85	50.1	5	13	270	0.00	29.324 
13:20	54.1	54.1	54.1	86	50.0	4	7	248	0.00	29.324 
13:25	53.8	53.8	53.8	86	49.7	4	10	270	0.00	29.324 
13:30	53.6	53.6	53.6	86	49.5	5	16	270	0.00	29.325 
13:35	53.6	53.6	53.6	87	49.8	4	10	270	0.00	29.325 
13:40	53.6	53.6	53.6	87	49.8	4	10	248	0.00	29.325 
13:45	53.9	53.9	53.9	87	50.1	3	7	248	0.00	29.327 
13:50	54.1	54.1	54.1	87	50.3	4	12	248	0.00	29.327 
13:55	54.2	54.2	54.2	84	49.5	4	9	270	0.00	29.327 
14:00	54.4	54.4	54.4	83	49.3	4	13	248	0.00	29.329 
14:05	54.4	54.4	54.4	84	49.7	4	10	270	0.00	29.329 
14:10	54.5	54.5	54.5	83	49.4	5	13	248	0.00	29.329 
14:15	54.5	54.5	54.5	84	49.8	4	12	248	0.00	29.333 
14:20	54.7	54.7	54.7	82	49.3	5	11	270	0.00	29.333 
14:25	54.7	54.7	54.7	81	49.0	5	13	270	0.00	29.333 
14:30	54.7	54.7	54.7	81	49.0	5	15	248	0.00	29.335 
14:35	54.5	54.5	54.5	81	48.8	5	15	270	0.00	29.335 
14:40	54.2	54.2	54.2	83	49.1	5	12	270	0.00	29.335 
14:45	53.9	53.9	53.9	84	49.2	4	11	270	0.00	29.339 
14:50	53.9	53.9	53.9	82	48.5	5	11	248	0.00	29.339 
14:55	53.9	53.9	53.9	84	49.2	4	10	270	0.00	29.339 
15:00	53.8	53.8	53.8	84	49.1	4	12	270	0.00	29.341 
15:05	53.3	53.3	53.3	85	48.9	6	17	270	0.01	29.341 
15:10	53.2	53.2	53.2	86	49.1	4	10	270	0.00	29.341 
15:15	53.2	53.2	53.2	86	49.1	5	12	270	0.00	29.343 
15:20	53.2	53.2	53.2	86	49.1	5	11	270	0.00	29.343 
15:25	53.5	53.5	53.5	86	49.4	4	10	270	0.00	29.343 
15:30	53.6	53.6	53.6	85	49.2	4	13	248	0.00	29.344 
15:35	53.8	53.8	53.8	84	49.1	4	9	248	0.00	29.344 
15:40	53.6	53.6	53.6	85	49.2	4	10	270	0.00	29.344 
15:45	53.3	53.3	53.3	86	49.2	4	10	248	0.00	29.345 
15:50	53.2	53.2	53.2	86	49.1	5	11	270	0.00	29.345 
15:55	53.2	53.2	53.2	86	49.1	4	11	270	0.00	29.345 
16:00	53.2	53.2	53.2	85	48.8	6	12	270	0.00	29.348 
16:05	53.1	53.1	53.1	87	49.3	5	13	270	0.00	29.348 
16:10	52.9	52.9	52.9	86	48.8	5	10	270	0.00	29.348 
16:15	52.9	52.9	52.9	85	48.5	6	14	248	0.01	29.345 
16:20	53.1	53.1	53.1	84	48.4	6	15	248	0.00	29.345 
16:25	53.2	53.2	53.2	84	48.5	5	12	270	0.00	29.345 
16:30	53.5	53.5	53.5	83	48.5	5	12	270	0.00	29.355 
16:35	53.6	53.6	53.6	82	48.2	5	10	270	0.00	29.355 
16:40	53.6	53.6	53.6	81	47.9	5	15	270	0.00	29.355 
16:45	53.6	53.6	53.6	81	47.9	6	18	270	0.00	29.349 
16:50	53.8	53.8	53.8	82	48.4	6	13	270	0.00	29.349 
16:55	53.9	53.9	53.9	81	48.2	7	18	270	0.00	29.349 
17:00	53.9	53.9	53.9	82	48.5	4	10	270	0.00	29.354 
17:05	53.9	53.9	53.9	83	48.9	3	10	248	0.00	29.354 
17:10	53.6	53.6	53.6	84	48.9	5	12	248	0.00	29.354 
17:15	53.5	53.5	53.5	84	48.8	5	15	270	0.00	29.363 
17:20	53.3	53.3	53.3	84	48.6	5	11	270	0.00	29.363 
17:25	53.2	53.2	53.2	85	48.8	5	15	248	0.00	29.363 
17:30	53.3	53.3	53.3	83	48.3	6	15	270	0.00	29.360 
17:35	53.6	53.6	53.6	82	48.2	5	11	270	0.00	29.360 
17:40	53.8	53.8	53.8	81	48.1	5	18	270	0.00	29.360 
17:45	53.8	53.8	53.8	82	48.4	4	10	248	0.00	29.365 
17:50	53.5	53.5	53.5	83	48.5	5	11	248	0.00	29.365 
17:55	53.2	53.2	53.2	84	48.5	4	9	270	0.00	29.365 
18:00	52.8	52.8	52.8	84	48.1	6	16	248	0.00	29.363 
18:05	52.3	52.3	52.3	86	48.2	5	12	270	0.00	29.363 
18:10	51.9	51.9	51.9	87	48.2	6	13	248	0.00	29.363 
18:15	51.7	51.7	51.7	87	48.0	5	11	270	0.00	29.371 
18:20	51.7	51.7	51.7	86	47.6	6	16	248	0.00	29.371 
18:25	51.7	51.7	51.7	86	47.6	4	11	248	0.00	29.371 
18:30	51.9	51.9	51.9	85	47.5	5	13	270	0.00	29.367 
18:35	52.0	52.0	52.0	84	47.3	4	16	270	0.00	29.367 
18:40	52.2	52.2	52.2	83	47.2	7	15	270	0.00	29.367 
18:45	52.3	52.3	52.3	83	47.3	5	13	248	0.00	29.367 
18:50	52.5	52.5	52.5	82	47.2	4	10	270	0.00	29.367 
18:55	52.6	52.6	52.6	81	46.9	6	14	270	0.00	29.367 
19:00	52.8	52.8	52.8	80	46.8	6	12	248	0.00	29.363 
19:05	52.8	52.8	52.8	79	46.5	7	14	248	0.00	29.363 
19:10	52.8	52.8	52.8	80	46.8	6	12	248	0.00	29.363 
19:15	52.8	52.8	52.8	81	47.1	6	12	270	0.00	29.363 
19:20	52.8	52.8	52.8	80	46.8	5	21	248	0.00	29.363 
19:25	52.8	52.8	52.8	80	46.8	7	21	270	0.00	29.363 
19:30	52.6	52.6	52.6	80	46.6	5	15	248	0.00	29.363 
19:35	52.5	52.5	52.5	80	46.5	7	21	270	0.00	29.363 
19:40	52.3	52.3	52.3	81	46.6	8	16	270	0.00	29.363 
19:45	52.0	52.0	52.0	83	47.0	6	12	270	0.00	29.370 
19:50	51.6	51.6	51.6	85	47.2	4	12	270	0.01	29.370 
19:55	49.6	49.6	49.6	86	45.6	3	6	270	0.07	29.370 
20:00	48.2	48.2	48.2	88	44.8	3	6	270	0.02	29.380 
20:05	47.7	47.7	47.7	90	44.9	3	5	248	0.00	29.380 
20:10	47.4	47.4	47.4	90	44.6	3	5	270	0.01	29.380 
20:15	47.4	47.4	47.4	91	44.9	2	4	248	0.00	29.380 
20:20	47.4	47.4	47.4	92	45.2	2	4	248	0.01	29.380 
20:25	47.6	47.6	47.6	92	45.4	2	5	248	0.00	29.380 
20:30	47.7	47.7	47.7	92	45.5	2	3	248	0.00	29.380 
20:35	47.9	47.9	47.9	92	45.7	2	6	248	0.00	29.380 
20:40	47.7	47.7	47.7	92	45.5	2	5	248	0.01	29.380 
20:45	47.6	47.6	47.6	92	45.4	2	4	248	0.00	29.381 
20:50	47.6	47.6	47.6	92	45.4	2	3	292	0.00	29.381 
20:55	47.6	47.6	47.6	92	45.4	1	5	248	0.00	29.381 
21:00	47.1	47.1	47.1	91	44.6	2	5	270	0.00	29.385 
21:05	46.8	46.8	46.8	91	44.3	2	4	248	0.00	29.385 
21:10	46.7	46.7	46.7	91	44.2	1	4	248	0.00	29.385 
21:15	46.5	46.5	46.5	91	44.0	1	3	292	0.00	29.385 
21:20	46.7	46.7	46.7	92	44.5	0	2	270	0.00	29.385 
21:25	46.8	46.8	46.8	92	44.6	0	2	270	0.00	29.385 
21:30	46.8	46.8	46.8	92	44.6	2	4	248	0.01	29.388 
21:35	46.5	46.5	46.5	91	44.0	3	6	270	0.00	29.388 
21:40	46.1	43.6	46.1	88	42.7	5	10	270	0.00	29.388 
21:45	46.0	46.0	46.0	89	42.9	3	6	270	0.00	29.398 
21:50	45.8	45.8	45.8	89	42.7	3	5	248	0.00	29.398 
21:55	45.7	45.7	45.7	89	42.6	2	5	248	0.01	29.398 
22:00	45.7	45.7	45.7	90	42.9	2	5	270	0.00	29.399 
22:05	45.7	45.7	45.7	90	42.9	2	4	248	0.00	29.399 
22:10	45.5	45.5	45.5	89	42.4	2	6	248	0.00	29.399 
22:15	45.4	45.4	45.4	89	42.3	2	5	270	0.00	29.400 
22:20	45.4	45.4	45.4	89	42.3	2	5	270	0.00	29.400 
22:25	45.2	45.2	45.2	89	42.2	1	4	270	0.00	29.400 
22:30	45.1	45.1	45.1	89	42.1	2	5	248	0.00	29.404 
22:35	45.1	45.1	45.1	89	42.1	2	7	248	0.01	29.404 
22:40	44.9	44.9	44.9	90	42.1	2	5	248	0.00	29.404 
22:45	44.9	44.9	44.9	90	42.1	1	4	248	0.00	29.403 
22:50	44.8	44.8	44.8	91	42.3	1	4	248	0.01	29.403 
22:55	44.8	44.8	44.8	91	42.3	1	4	248	0.00	29.403 
23:00	44.8	44.8	44.8	91	42.3	1	2	248	0.01	29.405 
23:05	44.8	44.8	44.8	92	42.6	0	3	248	0.00	29.405 
23:10	44.9	44.9	44.9	92	42.7	0	2	248	0.00	29.405 
23:15	44.9	44.9	44.9	92	42.7	1	4	248	0.01	29.406 
23:20	44.8	44.8	44.8	92	42.6	2	5	248	0.00	29.406 
23:25	44.6	44.6	44.6	91	42.1	2	5	248	0.00	29.406 
23:30	44.5	44.5	44.5	91	42.0	1	3	270	0.00	29.404 
23:35	44.5	44.5	44.5	91	42.0	2	6	248	0.01	29.404 
23:40	44.3	44.3	44.3	91	41.8	1	4	248	0.00	29.404 
23:45	44.3	44.3	44.3	91	41.8	1	3	248	0.00	29.404 
23:50	44.2	44.2	44.2	91	41.7	1	3	248	0.00	29.404 
23:55	44.2	44.2	44.2	91	41.7	1	3	248	0.01	29.404 

CoCoRaHS
IN-AL-39
A2 Web Hosting
Creative Commons License
GoDaddy
Look for:

loaded 2017-10-18 22:00:57 • last modified 2010-11-18 10:43:29
Privacy PolicyDisclaimer
• wx.awcolley.com is powered by PmWiki v.2002016 •
• all content (unless otherwise noted) © 2017 A W Colley